sensor_id;sensor_type;location;lat;lon;timestamp;P1;durP1;ratioP1;P2;durP2;ratioP2
71046;SDS011;58703;48.978;8.982;2023-04-25T00:01:53;3.38;;;2.78;;
71046;SDS011;58703;48.978;8.982;2023-04-25T00:04:38;4.33;;;2.70;;
71046;SDS011;58703;48.978;8.982;2023-04-25T00:07:22;6.25;;;3.47;;
71046;SDS011;58703;48.978;8.982;2023-04-25T00:10:08;6.03;;;3.67;;
71046;SDS011;58703;48.978;8.982;2023-04-25T00:12:54;3.67;;;3.33;;
71046;SDS011;58703;48.978;8.982;2023-04-25T00:15:38;4.43;;;3.33;;
71046;SDS011;58703;48.978;8.982;2023-04-25T00:18:22;6.27;;;3.50;;
71046;SDS011;58703;48.978;8.982;2023-04-25T00:21:06;3.53;;;3.08;;
71046;SDS011;58703;48.978;8.982;2023-04-25T00:23:54;3.85;;;3.35;;
71046;SDS011;58703;48.978;8.982;2023-04-25T00:26:39;4.57;;;3.25;;
71046;SDS011;58703;48.978;8.982;2023-04-25T00:29:23;5.53;;;3.38;;
71046;SDS011;58703;48.978;8.982;2023-04-25T00:32:07;3.17;;;2.43;;
71046;SDS011;58703;48.978;8.982;2023-04-25T00:34:52;3.95;;;3.50;;
71046;SDS011;58703;48.978;8.982;2023-04-25T00:37:37;7.22;;;3.55;;
71046;SDS011;58703;48.978;8.982;2023-04-25T00:40:23;4.20;;;3.30;;
71046;SDS011;58703;48.978;8.982;2023-04-25T00:43:09;4.55;;;3.42;;
71046;SDS011;58703;48.978;8.982;2023-04-25T00:45:54;3.87;;;3.33;;
71046;SDS011;58703;48.978;8.982;2023-04-25T00:48:40;4.82;;;3.42;;
71046;SDS011;58703;48.978;8.982;2023-04-25T00:51:25;6.20;;;3.42;;
71046;SDS011;58703;48.978;8.982;2023-04-25T00:54:11;4.93;;;3.80;;
71046;SDS011;58703;48.978;8.982;2023-04-25T00:56:57;5.22;;;3.83;;
71046;SDS011;58703;48.978;8.982;2023-04-25T00:59:41;6.57;;;4.00;;
71046;SDS011;58703;48.978;8.982;2023-04-25T01:02:30;4.22;;;3.65;;
71046;SDS011;58703;48.978;8.982;2023-04-25T01:05:15;5.30;;;3.70;;
71046;SDS011;58703;48.978;8.982;2023-04-25T01:08:01;4.68;;;3.35;;
71046;SDS011;58703;48.978;8.982;2023-04-25T01:10:46;6.57;;;4.50;;
71046;SDS011;58703;48.978;8.982;2023-04-25T01:13:31;6.13;;;3.57;;
71046;SDS011;58703;48.978;8.982;2023-04-25T01:16:17;4.88;;;3.60;;
71046;SDS011;58703;48.978;8.982;2023-04-25T01:19:03;5.18;;;3.80;;
71046;SDS011;58703;48.978;8.982;2023-04-25T01:21:53;5.00;;;3.97;;
71046;SDS011;58703;48.978;8.982;2023-04-25T01:24:37;6.22;;;4.95;;
71046;SDS011;58703;48.978;8.982;2023-04-25T01:27:21;7.00;;;4.07;;
71046;SDS011;58703;48.978;8.982;2023-04-25T01:30:06;8.18;;;4.80;;
71046;SDS011;58703;48.978;8.982;2023-04-25T01:32:51;5.45;;;3.45;;
71046;SDS011;58703;48.978;8.982;2023-04-25T01:35:35;4.05;;;3.65;;
71046;SDS011;58703;48.978;8.982;2023-04-25T01:38:19;3.08;;;2.78;;
71046;SDS011;58703;48.978;8.982;2023-04-25T01:41:03;4.27;;;2.70;;
71046;SDS011;58703;48.978;8.982;2023-04-25T01:43:49;5.13;;;3.22;;
71046;SDS011;58703;48.978;8.982;2023-04-25T01:46:33;3.78;;;2.80;;
71046;SDS011;58703;48.978;8.982;2023-04-25T01:49:18;7.40;;;3.38;;
71046;SDS011;58703;48.978;8.982;2023-04-25T01:52:02;3.42;;;3.13;;
71046;SDS011;58703;48.978;8.982;2023-04-25T01:54:47;3.27;;;2.60;;
71046;SDS011;58703;48.978;8.982;2023-04-25T01:57:33;5.25;;;2.97;;
71046;SDS011;58703;48.978;8.982;2023-04-25T02:00:17;3.10;;;2.80;;
71046;SDS011;58703;48.978;8.982;2023-04-25T02:03:01;3.63;;;3.17;;
71046;SDS011;58703;48.978;8.982;2023-04-25T02:05:45;5.05;;;3.53;;
71046;SDS011;58703;48.978;8.982;2023-04-25T02:08:30;4.77;;;2.87;;
71046;SDS011;58703;48.978;8.982;2023-04-25T02:11:16;5.57;;;3.38;;
71046;SDS011;58703;48.978;8.982;2023-04-25T02:14:01;4.97;;;2.95;;
71046;SDS011;58703;48.978;8.982;2023-04-25T02:16:46;6.07;;;3.15;;
71046;SDS011;58703;48.978;8.982;2023-04-25T02:19:30;3.95;;;3.38;;
71046;SDS011;58703;48.978;8.982;2023-04-25T02:22:15;6.40;;;3.97;;
71046;SDS011;58703;48.978;8.982;2023-04-25T02:24:58;5.20;;;3.67;;
71046;SDS011;58703;48.978;8.982;2023-04-25T02:27:42;5.40;;;3.90;;
71046;SDS011;58703;48.978;8.982;2023-04-25T02:30:27;4.50;;;3.72;;
71046;SDS011;58703;48.978;8.982;2023-04-25T02:33:11;4.32;;;3.63;;
71046;SDS011;58703;48.978;8.982;2023-04-25T02:35:55;5.40;;;3.80;;
71046;SDS011;58703;48.978;8.982;2023-04-25T02:38:39;5.32;;;4.13;;
71046;SDS011;58703;48.978;8.982;2023-04-25T02:41:25;7.35;;;5.40;;
71046;SDS011;58703;48.978;8.982;2023-04-25T02:44:09;5.43;;;4.45;;
71046;SDS011;58703;48.978;8.982;2023-04-25T02:46:53;8.30;;;4.50;;
71046;SDS011;58703;48.978;8.982;2023-04-25T02:49:37;5.80;;;3.77;;
71046;SDS011;58703;48.978;8.982;2023-04-25T02:52:21;5.13;;;3.60;;
71046;SDS011;58703;48.978;8.982;2023-04-25T02:55:05;7.25;;;3.90;;
71046;SDS011;58703;48.978;8.982;2023-04-25T02:57:50;6.05;;;3.40;;
71046;SDS011;58703;48.978;8.982;2023-04-25T03:00:35;4.82;;;3.85;;
71046;SDS011;58703;48.978;8.982;2023-04-25T03:03:21;4.90;;;3.73;;
71046;SDS011;58703;48.978;8.982;2023-04-25T03:06:05;5.32;;;3.42;;
71046;SDS011;58703;48.978;8.982;2023-04-25T03:08:49;6.28;;;4.00;;
71046;SDS011;58703;48.978;8.982;2023-04-25T03:11:34;4.13;;;3.60;;
71046;SDS011;58703;48.978;8.982;2023-04-25T03:14:19;5.65;;;3.60;;
71046;SDS011;58703;48.978;8.982;2023-04-25T03:17:04;5.30;;;3.23;;
71046;SDS011;58703;48.978;8.982;2023-04-25T03:19:49;4.45;;;3.55;;
71046;SDS011;58703;48.978;8.982;2023-04-25T03:22:33;3.97;;;3.58;;
71046;SDS011;58703;48.978;8.982;2023-04-25T03:25:18;4.65;;;3.35;;
71046;SDS011;58703;48.978;8.982;2023-04-25T03:28:01;3.35;;;3.05;;
71046;SDS011;58703;48.978;8.982;2023-04-25T03:30:46;5.73;;;2.73;;
71046;SDS011;58703;48.978;8.982;2023-04-25T03:33:30;5.38;;;3.00;;
71046;SDS011;58703;48.978;8.982;2023-04-25T03:36:14;4.45;;;3.53;;
71046;SDS011;58703;48.978;8.982;2023-04-25T03:39:00;5.57;;;3.90;;
71046;SDS011;58703;48.978;8.982;2023-04-25T03:41:45;5.63;;;4.13;;
71046;SDS011;58703;48.978;8.982;2023-04-25T03:44:30;4.23;;;3.23;;
71046;SDS011;58703;48.978;8.982;2023-04-25T03:47:15;4.00;;;3.42;;
71046;SDS011;58703;48.978;8.982;2023-04-25T03:49:59;4.70;;;3.92;;
71046;SDS011;58703;48.978;8.982;2023-04-25T03:52:46;7.20;;;4.35;;
71046;SDS011;58703;48.978;8.982;2023-04-25T03:55:30;4.32;;;3.67;;
71046;SDS011;58703;48.978;8.982;2023-04-25T03:58:14;4.53;;;3.10;;
71046;SDS011;58703;48.978;8.982;2023-04-25T04:00:59;3.03;;;2.72;;
71046;SDS011;58703;48.978;8.982;2023-04-25T04:03:43;4.80;;;3.92;;
71046;SDS011;58703;48.978;8.982;2023-04-25T04:06:29;3.97;;;3.08;;
71046;SDS011;58703;48.978;8.982;2023-04-25T04:09:14;4.75;;;3.00;;
71046;SDS011;58703;48.978;8.982;2023-04-25T04:11:59;3.53;;;2.70;;
71046;SDS011;58703;48.978;8.982;2023-04-25T04:14:46;5.45;;;3.03;;
71046;SDS011;58703;48.978;8.982;2023-04-25T04:17:31;3.60;;;3.10;;
71046;SDS011;58703;48.978;8.982;2023-04-25T04:20:17;3.97;;;3.25;;
71046;SDS011;58703;48.978;8.982;2023-04-25T04:23:03;4.53;;;3.20;;
71046;SDS011;58703;48.978;8.982;2023-04-25T04:25:48;3.37;;;2.70;;
71046;SDS011;58703;48.978;8.982;2023-04-25T04:28:33;4.13;;;2.80;;
71046;SDS011;58703;48.978;8.982;2023-04-25T04:31:17;4.97;;;3.67;;
71046;SDS011;58703;48.978;8.982;2023-04-25T04:34:04;4.75;;;3.45;;
71046;SDS011;58703;48.978;8.982;2023-04-25T04:36:49;4.63;;;3.60;;
71046;SDS011;58703;48.978;8.982;2023-04-25T04:39:36;4.27;;;3.17;;
71046;SDS011;58703;48.978;8.982;2023-04-25T04:42:21;3.53;;;3.08;;
71046;SDS011;58703;48.978;8.982;2023-04-25T04:45:05;4.45;;;3.20;;
71046;SDS011;58703;48.978;8.982;2023-04-25T04:47:51;3.75;;;3.28;;
71046;SDS011;58703;48.978;8.982;2023-04-25T04:50:37;4.18;;;2.95;;
71046;SDS011;58703;48.978;8.982;2023-04-25T04:53:20;6.03;;;3.17;;
71046;SDS011;58703;48.978;8.982;2023-04-25T04:56:06;3.75;;;3.30;;
71046;SDS011;58703;48.978;8.982;2023-04-25T04:58:51;3.38;;;3.08;;
71046;SDS011;58703;48.978;8.982;2023-04-25T05:01:37;3.35;;;2.72;;
71046;SDS011;58703;48.978;8.982;2023-04-25T05:04:22;4.53;;;3.58;;
71046;SDS011;58703;48.978;8.982;2023-04-25T05:07:07;4.87;;;3.50;;
71046;SDS011;58703;48.978;8.982;2023-04-25T05:09:52;5.90;;;3.38;;
71046;SDS011;58703;48.978;8.982;2023-04-25T05:12:37;5.15;;;3.63;;
71046;SDS011;58703;48.978;8.982;2023-04-25T05:15:22;3.95;;;3.45;;
71046;SDS011;58703;48.978;8.982;2023-04-25T05:17:49;3.50;;;3.20;;
71046;SDS011;58703;48.978;8.982;2023-04-25T05:20:16;4.73;;;3.30;;
71046;SDS011;58703;48.978;8.982;2023-04-25T05:22:45;3.90;;;3.08;;
71046;SDS011;58703;48.978;8.982;2023-04-25T05:25:12;4.55;;;3.80;;
71046;SDS011;58703;48.978;8.982;2023-04-25T05:27:39;3.15;;;2.70;;
71046;SDS011;58703;48.978;8.982;2023-04-25T05:30:05;5.05;;;3.28;;
71046;SDS011;58703;48.978;8.982;2023-04-25T05:32:32;4.27;;;2.90;;
71046;SDS011;58703;48.978;8.982;2023-04-25T05:34:57;4.10;;;3.08;;
71046;SDS011;58703;48.978;8.982;2023-04-25T05:37:24;3.57;;;3.27;;
71046;SDS011;58703;48.978;8.982;2023-04-25T05:39:51;3.35;;;3.05;;
71046;SDS011;58703;48.978;8.982;2023-04-25T05:42:16;4.38;;;3.30;;
71046;SDS011;58703;48.978;8.982;2023-04-25T05:44:42;4.20;;;3.47;;
71046;SDS011;58703;48.978;8.982;2023-04-25T05:47:08;5.57;;;3.50;;
71046;SDS011;58703;48.978;8.982;2023-04-25T05:49:33;5.77;;;3.17;;
71046;SDS011;58703;48.978;8.982;2023-04-25T05:52:01;5.22;;;3.58;;
71046;SDS011;58703;48.978;8.982;2023-04-25T05:54:26;4.53;;;3.30;;
71046;SDS011;58703;48.978;8.982;2023-04-25T05:56:52;4.30;;;3.43;;
71046;SDS011;58703;48.978;8.982;2023-04-25T05:59:17;3.47;;;3.10;;
71046;SDS011;58703;48.978;8.982;2023-04-25T06:01:43;4.73;;;3.50;;
71046;SDS011;58703;48.978;8.982;2023-04-25T06:04:08;4.17;;;3.03;;
71046;SDS011;58703;48.978;8.982;2023-04-25T06:06:34;5.23;;;3.30;;
71046;SDS011;58703;48.978;8.982;2023-04-25T06:09:01;6.53;;;3.63;;
71046;SDS011;58703;48.978;8.982;2023-04-25T06:11:28;4.22;;;2.83;;
71046;SDS011;58703;48.978;8.982;2023-04-25T06:13:53;4.53;;;3.10;;
71046;SDS011;58703;48.978;8.982;2023-04-25T06:16:19;3.13;;;2.83;;
71046;SDS011;58703;48.978;8.982;2023-04-25T06:18:46;3.63;;;3.03;;
71046;SDS011;58703;48.978;8.982;2023-04-25T06:21:11;3.53;;;3.22;;
71046;SDS011;58703;48.978;8.982;2023-04-25T06:23:38;4.10;;;2.93;;
71046;SDS011;58703;48.978;8.982;2023-04-25T06:26:03;3.80;;;3.00;;
71046;SDS011;58703;48.978;8.982;2023-04-25T06:28:29;2.93;;;2.63;;
71046;SDS011;58703;48.978;8.982;2023-04-25T06:30:54;3.70;;;3.10;;
71046;SDS011;58703;48.978;8.982;2023-04-25T06:33:20;3.90;;;2.60;;
71046;SDS011;58703;48.978;8.982;2023-04-25T06:35:46;3.60;;;2.80;;
71046;SDS011;58703;48.978;8.982;2023-04-25T06:38:13;2.78;;;2.47;;
71046;SDS011;58703;48.978;8.982;2023-04-25T06:40:40;2.95;;;2.65;;
71046;SDS011;58703;48.978;8.982;2023-04-25T06:43:07;2.87;;;1.97;;
71046;SDS011;58703;48.978;8.982;2023-04-25T06:45:32;3.45;;;2.72;;
71046;SDS011;58703;48.978;8.982;2023-04-25T06:47:58;2.37;;;2.17;;
71046;SDS011;58703;48.978;8.982;2023-04-25T06:50:23;4.30;;;2.65;;
71046;SDS011;58703;48.978;8.982;2023-04-25T06:52:52;3.08;;;2.78;;
71046;SDS011;58703;48.978;8.982;2023-04-25T06:55:18;2.57;;;2.20;;
71046;SDS011;58703;48.978;8.982;2023-04-25T06:57:44;3.10;;;2.47;;
71046;SDS011;58703;48.978;8.982;2023-04-25T07:00:10;3.83;;;3.03;;
71046;SDS011;58703;48.978;8.982;2023-04-25T07:02:36;3.28;;;2.70;;
71046;SDS011;58703;48.978;8.982;2023-04-25T07:05:02;3.67;;;2.93;;
71046;SDS011;58703;48.978;8.982;2023-04-25T07:07:29;3.33;;;2.97;;
71046;SDS011;58703;48.978;8.982;2023-04-25T07:09:55;3.38;;;2.90;;
71046;SDS011;58703;48.978;8.982;2023-04-25T07:12:22;4.65;;;3.28;;
71046;SDS011;58703;48.978;8.982;2023-04-25T07:14:49;3.80;;;2.70;;
71046;SDS011;58703;48.978;8.982;2023-04-25T07:17:15;3.80;;;3.10;;
71046;SDS011;58703;48.978;8.982;2023-04-25T07:19:40;3.28;;;2.97;;
71046;SDS011;58703;48.978;8.982;2023-04-25T07:22:06;3.13;;;2.83;;
71046;SDS011;58703;48.978;8.982;2023-04-25T07:24:32;3.97;;;2.90;;
71046;SDS011;58703;48.978;8.982;2023-04-25T07:26:58;4.33;;;2.77;;
71046;SDS011;58703;48.978;8.982;2023-04-25T07:29:24;5.40;;;3.40;;
71046;SDS011;58703;48.978;8.982;2023-04-25T07:31:49;5.00;;;3.37;;
71046;SDS011;58703;48.978;8.982;2023-04-25T07:34:15;3.23;;;2.83;;
71046;SDS011;58703;48.978;8.982;2023-04-25T07:36:41;6.03;;;3.55;;
71046;SDS011;58703;48.978;8.982;2023-04-25T07:39:06;4.00;;;3.60;;
71046;SDS011;58703;48.978;8.982;2023-04-25T07:41:34;3.67;;;2.90;;
71046;SDS011;58703;48.978;8.982;2023-04-25T07:44:01;3.20;;;2.90;;
71046;SDS011;58703;48.978;8.982;2023-04-25T07:46:26;5.15;;;4.55;;
71046;SDS011;58703;48.978;8.982;2023-04-25T07:48:52;3.67;;;2.87;;
71046;SDS011;58703;48.978;8.982;2023-04-25T07:51:19;4.00;;;3.20;;
71046;SDS011;58703;48.978;8.982;2023-04-25T07:53:47;3.70;;;3.00;;
71046;SDS011;58703;48.978;8.982;2023-04-25T07:56:12;3.70;;;2.92;;
71046;SDS011;58703;48.978;8.982;2023-04-25T07:58:38;3.50;;;2.80;;
71046;SDS011;58703;48.978;8.982;2023-04-25T08:01:05;3.97;;;3.58;;
71046;SDS011;58703;48.978;8.982;2023-04-25T08:03:30;3.97;;;3.23;;
71046;SDS011;58703;48.978;8.982;2023-04-25T08:05:56;4.22;;;3.08;;
71046;SDS011;58703;48.978;8.982;2023-04-25T08:08:21;3.50;;;3.03;;
71046;SDS011;58703;48.978;8.982;2023-04-25T08:10:47;3.47;;;3.17;;
71046;SDS011;58703;48.978;8.982;2023-04-25T08:13:13;4.07;;;3.67;;
71046;SDS011;58703;48.978;8.982;2023-04-25T08:15:39;3.60;;;3.30;;
71046;SDS011;58703;48.978;8.982;2023-04-25T08:18:05;4.30;;;3.47;;
71046;SDS011;58703;48.978;8.982;2023-04-25T08:20:31;5.30;;;3.58;;
71046;SDS011;58703;48.978;8.982;2023-04-25T08:22:57;4.23;;;3.83;;
71046;SDS011;58703;48.978;8.982;2023-04-25T08:25:23;6.35;;;4.32;;
71046;SDS011;58703;48.978;8.982;2023-04-25T08:27:49;4.83;;;4.13;;
71046;SDS011;58703;48.978;8.982;2023-04-25T08:30:15;4.88;;;4.30;;
71046;SDS011;58703;48.978;8.982;2023-04-25T08:32:41;7.17;;;4.60;;
71046;SDS011;58703;48.978;8.982;2023-04-25T08:35:07;5.28;;;4.68;;
71046;SDS011;58703;48.978;8.982;2023-04-25T08:37:34;5.53;;;4.90;;
71046;SDS011;58703;48.978;8.982;2023-04-25T08:40:01;7.10;;;4.32;;
71046;SDS011;58703;48.978;8.982;2023-04-25T08:42:27;4.57;;;4.00;;
71046;SDS011;58703;48.978;8.982;2023-04-25T08:44:57;5.45;;;4.90;;
71046;SDS011;58703;48.978;8.982;2023-04-25T08:47:25;6.47;;;5.32;;
71046;SDS011;58703;48.978;8.982;2023-04-25T08:49:54;7.07;;;5.80;;
71046;SDS011;58703;48.978;8.982;2023-04-25T08:52:24;6.65;;;4.97;;
71046;SDS011;58703;48.978;8.982;2023-04-25T08:54:54;8.53;;;6.00;;
71046;SDS011;58703;48.978;8.982;2023-04-25T08:57:21;7.68;;;5.55;;
71046;SDS011;58703;48.978;8.982;2023-04-25T08:59:49;6.53;;;5.18;;
71046;SDS011;58703;48.978;8.982;2023-04-25T09:02:19;7.47;;;5.97;;
71046;SDS011;58703;48.978;8.982;2023-04-25T09:04:47;14.00;;;9.60;;
71046;SDS011;58703;48.978;8.982;2023-04-25T09:07:13;9.77;;;7.60;;
71046;SDS011;58703;48.978;8.982;2023-04-25T09:09:42;7.53;;;6.72;;
71046;SDS011;58703;48.978;8.982;2023-04-25T09:12:09;7.90;;;6.45;;
71046;SDS011;58703;48.978;8.982;2023-04-25T09:14:35;10.27;;;8.13;;
71046;SDS011;58703;48.978;8.982;2023-04-25T09:17:03;9.30;;;7.33;;
71046;SDS011;58703;48.978;8.982;2023-04-25T09:19:33;8.57;;;5.53;;
71046;SDS011;58703;48.978;8.982;2023-04-25T09:22:12;10.82;;;5.47;;
71046;SDS011;58703;48.978;8.982;2023-04-25T09:24:38;6.20;;;5.13;;
71046;SDS011;58703;48.978;8.982;2023-04-25T09:27:10;6.83;;;5.27;;
71046;SDS011;58703;48.978;8.982;2023-04-25T09:29:43;7.93;;;5.00;;
71046;SDS011;58703;48.978;8.982;2023-04-25T09:34:49;13.00;;;10.02;;
71046;SDS011;58703;48.978;8.982;2023-04-25T09:37:23;7.22;;;5.53;;
71046;SDS011;58703;48.978;8.982;2023-04-25T09:39:59;7.63;;;5.18;;
71046;SDS011;58703;48.978;8.982;2023-04-25T09:42:31;7.82;;;6.55;;
71046;SDS011;58703;48.978;8.982;2023-04-25T09:45:01;9.07;;;6.60;;
71046;SDS011;58703;48.978;8.982;2023-04-25T09:47:27;9.05;;;6.97;;
71046;SDS011;58703;48.978;8.982;2023-04-25T09:49:53;8.88;;;7.43;;
71046;SDS011;58703;48.978;8.982;2023-04-25T09:52:24;13.60;;;8.55;;
71046;SDS011;58703;48.978;8.982;2023-04-25T09:54:50;14.20;;;9.05;;
71046;SDS011;58703;48.978;8.982;2023-04-25T09:57:20;18.27;;;9.77;;
71046;SDS011;58703;48.978;8.982;2023-04-25T09:59:48;11.63;;;7.57;;
71046;SDS011;58703;48.978;8.982;2023-04-25T10:02:16;11.68;;;8.75;;
71046;SDS011;58703;48.978;8.982;2023-04-25T10:04:44;6.22;;;4.85;;
71046;SDS011;58703;48.978;8.982;2023-04-25T10:07:15;6.28;;;4.95;;
71046;SDS011;58703;48.978;8.982;2023-04-25T10:09:41;4.83;;;3.33;;
71046;SDS011;58703;48.978;8.982;2023-04-25T10:12:09;6.50;;;4.35;;
71046;SDS011;58703;48.978;8.982;2023-04-25T10:14:35;4.47;;;3.85;;
71046;SDS011;58703;48.978;8.982;2023-04-25T10:17:01;6.82;;;3.70;;
71046;SDS011;58703;48.978;8.982;2023-04-25T10:19:29;4.57;;;3.78;;
71046;SDS011;58703;48.978;8.982;2023-04-25T10:22:00;5.23;;;4.30;;
71046;SDS011;58703;48.978;8.982;2023-04-25T10:24:30;6.25;;;3.97;;
71046;SDS011;58703;48.978;8.982;2023-04-25T10:26:55;9.02;;;4.53;;
71046;SDS011;58703;48.978;8.982;2023-04-25T10:29:25;5.47;;;3.93;;
71046;SDS011;58703;48.978;8.982;2023-04-25T10:31:51;5.10;;;3.53;;
71046;SDS011;58703;48.978;8.982;2023-04-25T10:34:17;6.95;;;5.20;;
71046;SDS011;58703;48.978;8.982;2023-04-25T10:36:44;5.28;;;4.78;;
71046;SDS011;58703;48.978;8.982;2023-04-25T10:39:21;7.73;;;4.90;;
71046;SDS011;58703;48.978;8.982;2023-04-25T10:41:51;6.93;;;5.55;;
71046;SDS011;58703;48.978;8.982;2023-04-25T10:44:21;7.03;;;5.43;;
71046;SDS011;58703;48.978;8.982;2023-04-25T10:46:47;9.73;;;5.97;;
71046;SDS011;58703;48.978;8.982;2023-04-25T10:49:30;8.60;;;6.75;;
71046;SDS011;58703;48.978;8.982;2023-04-25T10:52:16;7.72;;;6.40;;
71046;SDS011;58703;48.978;8.982;2023-04-25T10:54:54;12.80;;;6.30;;
71046;SDS011;58703;48.978;8.982;2023-04-25T11:00:06;9.50;;;6.97;;
71046;SDS011;58703;48.978;8.982;2023-04-25T11:02:52;10.40;;;7.43;;
71046;SDS011;58703;48.978;8.982;2023-04-25T11:05:34;8.20;;;6.35;;
71046;SDS011;58703;48.978;8.982;2023-04-25T11:08:01;7.70;;;6.17;;
71046;SDS011;58703;48.978;8.982;2023-04-25T11:10:30;7.10;;;5.88;;
71046;SDS011;58703;48.978;8.982;2023-04-25T11:12:57;9.00;;;7.00;;
71046;SDS011;58703;48.978;8.982;2023-04-25T11:15:25;7.70;;;6.15;;
71046;SDS011;58703;48.978;8.982;2023-04-25T11:17:53;9.27;;;7.28;;
71046;SDS011;58703;48.978;8.982;2023-04-25T11:20:19;11.30;;;7.67;;
71046;SDS011;58703;48.978;8.982;2023-04-25T11:22:45;13.52;;;7.47;;
71046;SDS011;58703;48.978;8.982;2023-04-25T11:25:15;9.02;;;6.90;;
71046;SDS011;58703;48.978;8.982;2023-04-25T11:27:54;9.73;;;7.18;;
71046;SDS011;58703;48.978;8.982;2023-04-25T11:30:22;9.67;;;6.27;;
71046;SDS011;58703;48.978;8.982;2023-04-25T11:32:49;12.02;;;7.57;;
71046;SDS011;58703;48.978;8.982;2023-04-25T11:35:15;10.63;;;7.05;;
71046;SDS011;58703;48.978;8.982;2023-04-25T11:37:43;12.65;;;7.93;;
71046;SDS011;58703;48.978;8.982;2023-04-25T11:40:10;15.45;;;9.30;;
71046;SDS011;58703;48.978;8.982;2023-04-25T11:42:38;12.77;;;8.30;;
71046;SDS011;58703;48.978;8.982;2023-04-25T11:45:06;14.70;;;8.13;;
71046;SDS011;58703;48.978;8.982;2023-04-25T11:47:35;11.23;;;8.07;;
71046;SDS011;58703;48.978;8.982;2023-04-25T11:50:03;10.82;;;8.07;;
71046;SDS011;58703;48.978;8.982;2023-04-25T11:52:43;13.80;;;8.68;;
71046;SDS011;58703;48.978;8.982;2023-04-25T11:55:15;14.60;;;8.10;;
71046;SDS011;58703;48.978;8.982;2023-04-25T11:57:44;13.55;;;8.30;;
71046;SDS011;58703;48.978;8.982;2023-04-25T12:00:17;16.58;;;8.23;;
71046;SDS011;58703;48.978;8.982;2023-04-25T12:02:52;14.00;;;7.78;;
71046;SDS011;58703;48.978;8.982;2023-04-25T12:05:23;11.02;;;7.80;;
71046;SDS011;58703;48.978;8.982;2023-04-25T12:07:51;13.93;;;7.90;;
71046;SDS011;58703;48.978;8.982;2023-04-25T12:10:17;11.55;;;6.13;;
71046;SDS011;58703;48.978;8.982;2023-04-25T12:12:48;11.63;;;7.53;;
71046;SDS011;58703;48.978;8.982;2023-04-25T12:15:17;11.63;;;6.75;;
71046;SDS011;58703;48.978;8.982;2023-04-25T12:17:49;11.23;;;7.10;;
71046;SDS011;58703;48.978;8.982;2023-04-25T12:20:19;12.30;;;8.43;;
71046;SDS011;58703;48.978;8.982;2023-04-25T12:22:50;14.50;;;8.35;;
71046;SDS011;58703;48.978;8.982;2023-04-25T12:28:10;12.18;;;9.45;;
71046;SDS011;58703;48.978;8.982;2023-04-25T12:31:03;14.27;;;9.40;;
71046;SDS011;58703;48.978;8.982;2023-04-25T12:33:31;17.53;;;9.07;;
71046;SDS011;58703;48.978;8.982;2023-04-25T12:35:59;15.73;;;9.80;;
71046;SDS011;58703;48.978;8.982;2023-04-25T12:38:30;19.13;;;9.23;;
71046;SDS011;58703;48.978;8.982;2023-04-25T12:40:57;16.42;;;9.02;;
71046;SDS011;58703;48.978;8.982;2023-04-25T12:43:25;15.80;;;9.15;;
71046;SDS011;58703;48.978;8.982;2023-04-25T12:45:52;16.57;;;9.30;;
71046;SDS011;58703;48.978;8.982;2023-04-25T12:48:19;12.90;;;8.90;;
71046;SDS011;58703;48.978;8.982;2023-04-25T12:50:47;15.38;;;9.57;;
71046;SDS011;58703;48.978;8.982;2023-04-25T12:53:21;16.88;;;8.50;;
71046;SDS011;58703;48.978;8.982;2023-04-25T12:55:50;12.30;;;9.68;;
71046;SDS011;58703;48.978;8.982;2023-04-25T12:58:17;11.13;;;8.10;;
71046;SDS011;58703;48.978;8.982;2023-04-25T13:00:45;14.90;;;9.68;;
71046;SDS011;58703;48.978;8.982;2023-04-25T13:03:12;13.10;;;9.30;;
71046;SDS011;58703;48.978;8.982;2023-04-25T13:05:39;13.90;;;9.73;;
71046;SDS011;58703;48.978;8.982;2023-04-25T13:08:06;12.77;;;9.55;;
71046;SDS011;58703;48.978;8.982;2023-04-25T13:10:33;15.03;;;9.27;;
71046;SDS011;58703;48.978;8.982;2023-04-25T13:13:00;13.63;;;8.90;;
71046;SDS011;58703;48.978;8.982;2023-04-25T13:15:27;13.88;;;8.20;;
71046;SDS011;58703;48.978;8.982;2023-04-25T13:17:54;10.68;;;7.25;;
71046;SDS011;58703;48.978;8.982;2023-04-25T13:20:22;12.65;;;7.45;;
71046;SDS011;58703;48.978;8.982;2023-04-25T13:22:49;10.43;;;7.97;;
71046;SDS011;58703;48.978;8.982;2023-04-25T13:25:16;11.27;;;7.13;;
71046;SDS011;58703;48.978;8.982;2023-04-25T13:27:43;9.98;;;6.40;;
71046;SDS011;58703;48.978;8.982;2023-04-25T13:30:11;8.48;;;6.43;;
71046;SDS011;58703;48.978;8.982;2023-04-25T13:32:38;9.63;;;7.38;;
71046;SDS011;58703;48.978;8.982;2023-04-25T13:35:07;14.13;;;8.67;;
71046;SDS011;58703;48.978;8.982;2023-04-25T13:37:36;28.08;;;15.35;;
71046;SDS011;58703;48.978;8.982;2023-04-25T13:40:02;13.07;;;7.70;;
71046;SDS011;58703;48.978;8.982;2023-04-25T13:42:31;37.85;;;22.30;;
71046;SDS011;58703;48.978;8.982;2023-04-25T13:44:58;58.85;;;32.63;;
71046;SDS011;58703;48.978;8.982;2023-04-25T13:47:25;17.47;;;9.90;;
71046;SDS011;58703;48.978;8.982;2023-04-25T13:49:53;11.02;;;6.68;;
71046;SDS011;58703;48.978;8.982;2023-04-25T13:52:21;10.77;;;7.20;;
71046;SDS011;58703;48.978;8.982;2023-04-25T13:54:46;7.97;;;5.72;;
71046;SDS011;58703;48.978;8.982;2023-04-25T13:57:13;11.57;;;7.73;;
71046;SDS011;58703;48.978;8.982;2023-04-25T13:59:39;14.80;;;8.65;;
71046;SDS011;58703;48.978;8.982;2023-04-25T14:02:06;10.75;;;6.30;;
71046;SDS011;58703;48.978;8.982;2023-04-25T14:04:33;13.32;;;7.03;;
71046;SDS011;58703;48.978;8.982;2023-04-25T14:06:58;8.83;;;6.47;;
71046;SDS011;58703;48.978;8.982;2023-04-25T14:09:24;12.98;;;7.22;;
71046;SDS011;58703;48.978;8.982;2023-04-25T14:11:52;11.00;;;7.15;;
71046;SDS011;58703;48.978;8.982;2023-04-25T14:14:18;12.33;;;6.80;;
71046;SDS011;58703;48.978;8.982;2023-04-25T14:16:48;8.82;;;6.38;;
71046;SDS011;58703;48.978;8.982;2023-04-25T14:19:15;11.48;;;7.00;;
71046;SDS011;58703;48.978;8.982;2023-04-25T14:21:42;9.10;;;6.80;;
71046;SDS011;58703;48.978;8.982;2023-04-25T14:24:08;8.82;;;6.30;;
71046;SDS011;58703;48.978;8.982;2023-04-25T14:26:36;8.43;;;5.87;;
71046;SDS011;58703;48.978;8.982;2023-04-25T14:29:02;12.95;;;7.03;;
71046;SDS011;58703;48.978;8.982;2023-04-25T14:31:28;10.10;;;6.20;;
71046;SDS011;58703;48.978;8.982;2023-04-25T14:33:54;9.50;;;5.77;;
71046;SDS011;58703;48.978;8.982;2023-04-25T14:36:21;9.67;;;6.20;;
71046;SDS011;58703;48.978;8.982;2023-04-25T14:38:46;8.40;;;5.60;;
71046;SDS011;58703;48.978;8.982;2023-04-25T14:41:12;6.97;;;5.60;;
71046;SDS011;58703;48.978;8.982;2023-04-25T14:43:37;10.07;;;6.53;;
71046;SDS011;58703;48.978;8.982;2023-04-25T14:46:05;10.20;;;5.53;;
71046;SDS011;58703;48.978;8.982;2023-04-25T14:48:31;7.70;;;6.00;;
71046;SDS011;58703;48.978;8.982;2023-04-25T14:50:58;10.73;;;6.87;;
71046;SDS011;58703;48.978;8.982;2023-04-25T14:53:26;8.95;;;6.22;;
71046;SDS011;58703;48.978;8.982;2023-04-25T14:55:52;9.85;;;6.00;;
71046;SDS011;58703;48.978;8.982;2023-04-25T14:58:18;9.03;;;5.77;;
71046;SDS011;58703;48.978;8.982;2023-04-25T15:00:43;9.83;;;5.70;;
71046;SDS011;58703;48.978;8.982;2023-04-25T15:03:09;6.07;;;4.85;;
71046;SDS011;58703;48.978;8.982;2023-04-25T15:05:37;7.45;;;4.82;;
71046;SDS011;58703;48.978;8.982;2023-04-25T15:08:03;8.63;;;5.37;;
71046;SDS011;58703;48.978;8.982;2023-04-25T15:10:29;7.15;;;5.38;;
71046;SDS011;58703;48.978;8.982;2023-04-25T15:12:56;6.57;;;5.40;;
71046;SDS011;58703;48.978;8.982;2023-04-25T15:15:22;8.63;;;4.70;;
71046;SDS011;58703;48.978;8.982;2023-04-25T15:17:49;6.10;;;4.32;;
71046;SDS011;58703;48.978;8.982;2023-04-25T15:20:15;9.80;;;4.45;;
71046;SDS011;58703;48.978;8.982;2023-04-25T15:22:42;6.10;;;4.07;;
71046;SDS011;58703;48.978;8.982;2023-04-25T15:25:15;6.93;;;4.40;;
71046;SDS011;58703;48.978;8.982;2023-04-25T15:27:43;6.97;;;5.00;;
71046;SDS011;58703;48.978;8.982;2023-04-25T15:30:10;8.65;;;4.88;;